Time;durP1;ratioP1;P1;durP2;ratioP2;P2;SDS_P1;SDS_P2;PMS_P1;PMS_P2;Temp;Humidity;BMP_temperature;BMP_pressure;BME280_temperature;BME280_humidity;BME280_pressure;Samples;Min_cycle;Max_cycle;Signal;HPM_P1;HPM_P2
2021/04/16 00:00:16;;;;;;;0.87;0.50;;;;;;;4.11;64.85;101697.91;5009174;28;20181;-77
2021/04/16 00:02:41;;;;;;;0.47;0.40;;;;;;;4.10;64.67;101692.75;4994146;28;20181;-79
2021/04/16 00:05:07;;;;;;;1.23;0.93;;;;;;;4.15;64.77;101695.56;4994127;28;20209;-75
2021/04/16 00:07:32;;;;;;;1.13;0.67;;;;;;;4.11;64.56;101692.50;4994036;28;20170;-76
2021/04/16 00:09:59;;;;;;;1.60;0.93;;;;;;;4.06;64.93;101686.19;4994109;28;20623;-79
2021/04/16 00:12:24;;;;;;;0.50;0.40;;;;;;;4.04;63.29;101678.28;4993946;28;20177;-78
2021/04/16 00:14:50;;;;;;;0.60;0.60;;;;;;;4.02;63.93;101685.00;4994076;28;20228;-77
2021/04/16 00:17:15;;;;;;;0.73;0.67;;;;;;;4.02;63.63;101691.22;4994368;28;20648;-78
2021/04/16 00:19:40;;;;;;;0.40;0.40;;;;;;;4.05;62.03;101685.38;4994314;28;20248;-79
2021/04/16 00:22:06;;;;;;;0.30;0.30;;;;;;;4.14;61.93;101683.09;4993806;28;20543;-78
2021/04/16 00:24:31;;;;;;;0.20;0.20;;;;;;;4.17;62.26;101686.13;4993637;28;20209;-78
2021/04/16 00:26:56;;;;;;;0.37;0.30;;;;;;;4.37;64.44;101676.81;4994227;28;20535;-79
2021/04/16 00:29:22;;;;;;;0.67;0.53;;;;;;;4.54;64.16;101682.31;4994407;28;20197;-75
2021/04/16 00:31:50;;;;;;;0.57;0.50;;;;;;;4.64;65.33;101671.69;4993894;28;20173;-79
2021/04/16 00:34:25;;;;;;;0.30;0.30;;;;;;;4.61;65.69;101672.13;4994287;28;20531;-79
2021/04/16 00:36:52;;;;;;;0.53;0.43;;;;;;;4.54;64.98;101664.19;4992135;28;20181;-76
2021/04/16 00:39:20;;;;;;;0.47;0.47;;;;;;;4.51;63.91;101661.97;4994174;28;20239;-79
2021/04/16 00:41:46;;;;;;;0.13;0.13;;;;;;;4.55;64.29;101656.88;4993414;28;20195;-79
2021/04/16 00:44:11;;;;;;;0.50;0.43;;;;;;;4.53;64.17;101646.28;4993612;28;20221;-77
2021/04/16 00:46:57;;;;;;;0.70;0.60;;;;;;;4.38;63.40;101641.41;4992029;28;20299;-78
2021/04/16 00:49:29;;;;;;;1.13;0.53;;;;;;;4.26;63.33;101634.41;4993437;28;20181;-78
2021/04/16 00:51:58;;;;;;;0.57;0.50;;;;;;;4.20;62.74;101638.06;4993479;28;20181;-81
2021/04/16 00:54:31;;;;;;;0.43;0.30;;;;;;;4.18;63.66;101630.16;4993387;28;20177;-76
2021/04/16 00:56:57;;;;;;;0.30;0.30;;;;;;;4.15;63.41;101636.06;4993266;28;20564;-78
2021/04/16 00:59:27;;;;;;;0.40;0.40;;;;;;;4.15;64.33;101630.66;4993266;28;20192;-77
2021/04/16 01:01:53;;;;;;;0.33;0.33;;;;;;;4.13;63.65;101625.47;4992881;28;20185;-78
2021/04/16 01:04:19;;;;;;;0.30;0.30;;;;;;;4.15;64.12;101638.75;4993219;28;20204;-78
2021/04/16 01:06:44;;;;;;;0.23;0.23;;;;;;;4.15;64.11;101631.47;4993000;28;20181;-76
2021/04/16 01:09:10;;;;;;;0.77;0.60;;;;;;;4.12;64.74;101641.94;4993137;28;20641;-79
2021/04/16 01:11:36;;;;;;;0.50;0.50;;;;;;;4.06;65.08;101637.50;4993104;28;20169;-78
2021/04/16 01:14:03;;;;;;;0.37;0.30;;;;;;;4.03;65.33;101640.66;4992873;28;20189;-79
2021/04/16 01:16:32;;;;;;;0.47;0.20;;;;;;;3.96;66.20;101627.28;4992669;28;20554;-81
2021/04/16 01:19:00;;;;;;;0.50;0.50;;;;;;;3.94;66.27;101629.41;4993457;28;20193;-80
2021/04/16 01:21:36;;;;;;;0.80;0.80;;;;;;;3.96;66.59;101623.78;4992854;28;20701;-80
2021/04/16 01:24:23;;;;;;;0.23;0.23;;;;;;;3.92;67.18;101625.31;4992805;28;20258;-78
2021/04/16 01:26:49;;;;;;;0.73;0.47;;;;;;;3.83;68.04;101624.84;4992588;28;20181;-78
2021/04/16 01:29:16;;;;;;;0.20;0.20;;;;;;;3.72;68.74;101631.91;4993085;28;20204;-79
2021/04/16 01:31:47;;;;;;;0.20;0.20;;;;;;;3.62;68.45;101620.03;4992804;28;20215;-78
2021/04/16 01:34:18;;;;;;;0.23;0.17;;;;;;;3.56;68.22;101621.81;4992432;28;20173;-77
2021/04/16 01:36:44;;;;;;;0.33;0.33;;;;;;;3.49;68.57;101616.53;4992322;28;20177;-80
2021/04/16 01:39:09;;;;;;;0.43;0.43;;;;;;;3.48;68.97;101619.47;4993031;28;20177;-81
2021/04/16 01:41:34;;;;;;;0.47;0.30;;;;;;;3.39;69.74;101619.00;4992187;28;20224;-77
2021/04/16 01:44:06;;;;;;;0.07;0.07;;;;;;;3.38;68.49;101613.84;4992102;28;20760;-78
2021/04/16 01:46:52;;;;;;;0.30;0.30;;;;;;;3.37;69.30;101614.91;4992200;28;20672;-80
2021/04/16 01:49:18;;;;;;;0.30;0.20;;;;;;;3.32;69.37;101615.56;4991874;28;20208;-79
2021/04/16 01:51:44;;;;;;;0.57;0.57;;;;;;;3.32;69.44;101617.47;4992138;28;20608;-79
2021/04/16 01:54:09;;;;;;;0.50;0.47;;;;;;;3.33;69.91;101621.78;4991925;28;20181;-79
2021/04/16 01:56:35;;;;;;;0.50;0.50;;;;;;;3.29;70.32;101621.44;4991931;28;20174;-80
2021/04/16 01:59:01;;;;;;;0.70;0.70;;;;;;;3.25;71.10;101613.00;4992179;28;20239;-81
2021/04/16 02:01:26;;;;;;;0.80;0.40;;;;;;;3.20;71.46;101614.78;4992083;28;20177;-81
2021/04/16 02:03:52;;;;;;;0.27;0.27;;;;;;;3.12;72.02;101615.09;4991690;28;20646;-78
2021/04/16 02:06:17;;;;;;;0.20;0.20;;;;;;;3.07;71.74;101615.00;4991996;28;20181;-80
2021/04/16 02:08:43;;;;;;;0.50;0.50;;;;;;;3.07;72.43;101615.81;4991733;28;20335;-80
2021/04/16 02:11:08;;;;;;;0.43;0.43;;;;;;;3.05;71.96;101609.81;4991922;28;20189;-78
2021/04/16 02:13:33;;;;;;;0.60;0.60;;;;;;;3.08;71.79;101606.66;4991728;28;20193;-77
2021/04/16 02:15:59;;;;;;;7.00;0.77;;;;;;;3.16;71.76;101616.28;4991557;28;20268;-77
2021/04/16 02:18:24;;;;;;;0.20;0.20;;;;;;;3.04;73.36;101613.59;4991744;28;20177;-80
2021/04/16 02:20:49;;;;;;;0.50;0.47;;;;;;;2.89;74.03;101610.47;4991693;28;20188;-79
2021/04/16 02:23:14;;;;;;;0.37;0.37;;;;;;;2.85;74.36;101612.81;4991152;28;20215;-80
2021/04/16 02:25:40;;;;;;;0.20;0.20;;;;;;;2.84;74.38;101604.97;4991677;28;20169;-80
2021/04/16 02:28:05;;;;;;;1.27;0.57;;;;;;;2.85;74.60;101610.13;4991691;28;20208;-78
2021/04/16 02:30:34;;;;;;;0.40;0.20;;;;;;;2.82;74.56;101599.78;4991715;28;20201;-80
2021/04/16 02:32:59;;;;;;;1.47;0.60;;;;;;;2.76;74.22;101595.34;4991854;28;20188;-81
2021/04/16 02:35:26;;;;;;;0.70;0.40;;;;;;;2.77;74.43;101596.16;4991337;28;20535;-79
2021/04/16 02:37:53;;;;;;;0.33;0.30;;;;;;;2.78;74.97;101589.69;4991544;28;20189;-81
2021/04/16 02:40:22;;;;;;;0.10;0.10;;;;;;;2.76;75.65;101595.34;4991301;28;20629;-78
2021/04/16 02:42:47;;;;;;;0.47;0.40;;;;;;;2.69;75.06;101589.19;4991027;28;20432;-78
2021/04/16 02:45:15;;;;;;;1.07;0.90;;;;;;;2.65;75.46;101590.72;4991550;28;20197;-80
2021/04/16 02:47:41;;;;;;;0.60;0.53;;;;;;;2.64;75.90;101581.81;4991238;28;20461;-80
2021/04/16 02:50:10;;;;;;;0.80;0.80;;;;;;;2.61;76.10;101578.75;4991187;28;20482;-81
2021/04/16 02:52:36;;;;;;;1.73;0.80;;;;;;;2.64;75.85;101581.00;5006042;28;20680;-81
2021/04/16 02:55:03;;;;;;;1.20;0.80;;;;;;;2.72;75.44;101577.94;4991379;28;20205;-80
2021/04/16 02:57:28;;;;;;;0.63;0.57;;;;;;;2.72;76.11;101569.03;4990896;28;20188;-81
2021/04/16 02:59:54;;;;;;;0.53;0.40;;;;;;;2.72;76.26;101577.94;4990351;28;20484;-80
2021/04/16 03:02:19;;;;;;;0.60;0.60;;;;;;;2.78;75.37;101582.44;4990868;28;20544;-81
2021/04/16 03:04:44;;;;;;;1.10;1.00;;;;;;;2.89;75.80;101573.53;4990722;28;20216;-80
2021/04/16 03:07:10;;;;;;;0.73;0.73;;;;;;;2.93;75.63;101576.59;4991203;28;20213;-77
2021/04/16 03:09:35;;;;;;;1.77;1.13;;;;;;;2.94;75.57;101580.94;4991057;28;20251;-81
2021/04/16 03:12:01;;;;;;;0.50;0.50;;;;;;;2.95;75.54;101586.09;4990853;28;20177;-79
2021/04/16 03:14:26;;;;;;;0.37;0.37;;;;;;;2.99;74.63;101584.56;4991020;28;20173;-77
2021/04/16 03:16:52;;;;;;;0.87;0.63;;;;;;;3.08;75.03;101582.34;4990724;28;20166;-81
2021/04/16 03:19:17;;;;;;;1.00;0.90;;;;;;;3.13;75.08;101585.16;4990750;28;20632;-81
2021/04/16 03:21:43;;;;;;;0.70;0.37;;;;;;;3.19;74.04;101583.44;4990852;28;20181;-80
2021/04/16 03:24:09;;;;;;;1.00;0.67;;;;;;;3.25;74.24;101577.91;4989177;28;20307;-81
2021/04/16 03:26:35;;;;;;;0.40;0.40;;;;;;;3.26;74.23;101579.53;4989225;28;20174;-80
2021/04/16 03:29:02;;;;;;;0.57;0.53;;;;;;;3.23;73.79;101574.63;4990754;28;20207;-81
2021/04/16 03:31:28;;;;;;;1.03;0.20;;;;;;;3.28;74.01;101576.59;4990794;28;20177;-79
2021/04/16 03:33:55;;;;;;;0.33;0.30;;;;;;;3.29;73.68;101575.53;4990527;28;20180;-77
2021/04/16 03:36:20;;;;;;;0.30;0.30;;;;;;;3.39;73.48;101575.78;4991114;28;20181;-78
2021/04/16 03:38:49;;;;;;;0.63;0.60;;;;;;;3.45;72.25;101579.41;4990711;28;20860;-76
2021/04/16 03:41:15;;;;;;;1.00;0.90;;;;;;;3.50;72.99;101580.38;4990751;28;20255;-78
2021/04/16 03:43:42;;;;;;;0.20;0.20;;;;;;;3.51;72.81;101578.47;4990591;28;20247;-79
2021/04/16 03:46:08;;;;;;;1.30;0.80;;;;;;;3.58;73.01;101592.66;4989487;28;20173;-79
2021/04/16 03:48:33;;;;;;;0.57;0.57;;;;;;;3.62;72.67;101591.16;4990408;28;20240;-79
2021/04/16 03:50:58;;;;;;;0.50;0.50;;;;;;;3.67;72.58;101590.44;4989392;28;20185;-76
2021/04/16 03:53:25;;;;;;;1.73;0.40;;;;;;;3.70;72.66;101592.66;4990299;28;20189;-78
2021/04/16 03:55:51;;;;;;;0.50;0.50;;;;;;;3.63;73.19;101590.09;4990317;28;20260;-79
2021/04/16 03:58:16;;;;;;;0.80;0.60;;;;;;;3.50;73.05;101582.25;4990743;28;20320;-78
2021/04/16 04:00:42;;;;;;;1.27;1.17;;;;;;;3.43;73.14;101578.81;4990593;28;20543;-79
2021/04/16 04:03:11;;;;;;;0.60;0.60;;;;;;;3.40;73.68;101577.41;4989909;28;20592;-75
2021/04/16 04:05:37;;;;;;;0.63;0.63;;;;;;;3.42;73.51;101582.59;4990232;28;20189;-78
2021/04/16 04:08:03;;;;;;;0.57;0.53;;;;;;;3.43;72.92;101586.94;4990380;28;20193;-78
2021/04/16 04:10:35;;;;;;;0.30;0.30;;;;;;;3.43;73.26;101592.34;4990478;28;20182;-76
2021/04/16 04:13:01;;;;;;;0.77;0.77;;;;;;;3.48;72.53;101587.88;4993807;28;20197;-79
2021/04/16 04:15:27;;;;;;;0.50;0.50;;;;;;;3.57;71.89;101588.31;4994046;28;20236;-79
2021/04/16 04:17:53;;;;;;;0.60;0.60;;;;;;;3.64;71.91;101589.03;4993605;28;20184;-78
2021/04/16 04:20:22;;;;;;;1.57;0.80;;;;;;;3.73;71.40;101581.38;4993937;28;20264;-77
2021/04/16 04:22:47;;;;;;;0.60;0.60;;;;;;;3.81;70.98;101591.84;4993677;28;20181;-79
2021/04/16 04:25:16;;;;;;;0.97;0.70;;;;;;;3.84;71.10;101584.06;4993722;28;20716;-75
2021/04/16 04:27:41;;;;;;;1.10;1.00;;;;;;;3.89;70.49;101577.94;4993772;28;20213;-78
2021/04/16 04:30:08;;;;;;;1.30;0.90;;;;;;;3.88;70.38;101576.28;4993560;28;20232;-78
2021/04/16 04:32:33;;;;;;;0.47;0.47;;;;;;;3.85;70.21;101582.19;4993330;28;20193;-76
2021/04/16 04:34:58;;;;;;;0.40;0.40;;;;;;;3.88;70.02;101576.28;4993846;28;20190;-78
2021/04/16 04:37:24;;;;;;;1.23;0.90;;;;;;;3.86;69.74;101579.22;4993449;28;20181;-77
2021/04/16 04:39:49;;;;;;;0.77;0.60;;;;;;;3.85;70.33;101574.88;4993469;28;20232;-76
2021/04/16 04:42:15;;;;;;;0.70;0.70;;;;;;;3.87;70.45;101580.06;4993481;28;20192;-79
2021/04/16 04:44:40;;;;;;;0.47;0.47;;;;;;;3.88;71.15;101587.91;4993221;28;20252;-78
2021/04/16 04:47:08;;;;;;;2.10;0.87;;;;;;;3.86;71.45;101581.94;4993712;28;20184;-78
2021/04/16 04:49:33;;;;;;;0.40;0.40;;;;;;;3.84;71.36;101585.94;4993364;28;20173;-79
2021/04/16 04:52:14;;;;;;;1.43;1.03;;;;;;;3.77;71.89;101582.56;4993389;28;20230;-78
2021/04/16 04:54:48;;;;;;;0.60;0.57;;;;;;;3.75;72.93;101590.88;4993319;28;20176;-80
2021/04/16 04:57:14;;;;;;;0.77;0.77;;;;;;;3.74;73.16;101594.66;4992786;28;20188;-78
2021/04/16 04:59:41;;;;;;;0.90;0.90;;;;;;;3.73;73.28;101595.72;4992366;28;20184;-77
2021/04/16 05:02:06;;;;;;;1.27;0.67;;;;;;;3.69;73.27;101596.44;4993024;28;20272;-79
2021/04/16 05:04:31;;;;;;;0.50;0.50;;;;;;;3.65;73.67;101587.16;4993011;28;20288;-77
2021/04/16 05:06:57;;;;;;;1.13;1.03;;;;;;;3.61;73.43;101585.97;4993110;28;20181;-75
2021/04/16 05:09:22;;;;;;;0.33;0.33;;;;;;;3.57;75.12;101585.63;4992983;28;20181;-78
2021/04/16 05:11:48;;;;;;;0.60;0.57;;;;;;;3.47;75.20;101591.66;4992985;28;20173;-77
2021/04/16 05:14:13;;;;;;;0.67;0.50;;;;;;;3.47;76.14;101591.66;4992705;28;20181;-78
2021/04/16 05:16:38;;;;;;;0.77;0.50;;;;;;;3.46;76.59;101591.84;4992917;28;20182;-77
2021/04/16 05:19:04;;;;;;;0.40;0.40;;;;;;;3.42;76.10;101586.09;4993125;28;20188;-80
2021/04/16 05:21:29;;;;;;;0.83;0.73;;;;;;;3.41;76.59;101587.16;4992768;28;20453;-78
2021/04/16 05:23:56;;;;;;;0.93;0.93;;;;;;;3.41;76.06;101587.16;4991635;28;20294;-80
2021/04/16 05:26:21;;;;;;;0.80;0.60;;;;;;;3.44;76.60;101586.69;4992748;28;20203;-80
2021/04/16 05:28:46;;;;;;;0.90;0.90;;;;;;;3.48;76.32;101590.59;4992474;28;20208;-77
2021/04/16 05:31:12;;;;;;;1.13;1.13;;;;;;;3.54;75.88;101586.94;4992687;28;20176;-76
2021/04/16 05:33:37;;;;;;;1.53;1.33;;;;;;;3.62;75.54;101587.59;4992394;28;20189;-79
2021/04/16 05:36:03;;;;;;;1.23;0.87;;;;;;;3.63;74.97;101590.09;4992536;28;20323;-78
2021/04/16 05:38:28;;;;;;;1.17;0.73;;;;;;;3.63;75.18;101590.09;4990970;28;20194;-78
2021/04/16 05:40:53;;;;;;;0.60;0.60;;;;;;;3.64;74.58;101599.84;4992350;28;20239;-78
2021/04/16 05:43:19;;;;;;;1.10;1.00;;;;;;;3.64;74.57;101597.16;4992085;28;20687;-79
2021/04/16 05:45:44;;;;;;;1.67;1.43;;;;;;;3.69;74.76;101594.53;4992133;28;20177;-78
2021/04/16 05:48:09;;;;;;;7.40;1.07;;;;;;;3.73;75.15;101590.31;4992399;28;20260;-78
2021/04/16 05:50:35;;;;;;;1.17;1.00;;;;;;;3.79;75.78;101591.25;4992279;28;20652;-77
2021/04/16 05:53:02;;;;;;;1.40;1.00;;;;;;;3.82;74.82;101583.47;4992204;28;20274;-75
2021/04/16 05:55:29;;;;;;;0.87;0.70;;;;;;;3.82;74.78;101594.28;4992215;28;20260;-79
2021/04/16 05:57:54;;;;;;;0.80;0.80;;;;;;;3.84;74.79;101602.16;4991812;28;20181;-79
2021/04/16 06:00:20;;;;;;;0.80;0.80;;;;;;;3.87;75.21;101607.09;4992111;28;20236;-78
2021/04/16 06:02:47;;;;;;;0.40;0.40;;;;;;;3.85;74.75;101604.63;4991849;28;20707;-78
2021/04/16 06:05:16;;;;;;;1.10;1.00;;;;;;;3.82;75.52;101601.59;4991808;28;20224;-80
2021/04/16 06:07:43;;;;;;;2.37;1.20;;;;;;;3.85;75.57;101603.81;4990525;28;20191;-80
2021/04/16 06:10:11;;;;;;;0.73;0.60;;;;;;;3.91;76.15;101596.63;4991389;28;20644;-77
2021/04/16 06:12:37;;;;;;;1.03;0.70;;;;;;;3.90;75.43;101598.50;4991515;28;20177;-79
2021/04/16 06:15:09;;;;;;;1.50;1.10;;;;;;;3.93;75.29;101595.34;5003463;28;20209;-80
2021/04/16 06:17:34;;;;;;;1.63;0.80;;;;;;;3.94;75.10;101596.97;4972361;28;20638;-80
2021/04/16 06:20:00;;;;;;;1.10;0.70;;;;;;;3.96;74.26;101584.03;4972235;28;20220;-79
2021/04/16 06:22:26;;;;;;;0.80;0.80;;;;;;;4.02;74.37;101590.34;4972109;28;20178;-79
2021/04/16 06:24:51;;;;;;;1.30;1.20;;;;;;;4.08;74.18;101592.13;4971866;28;20296;-84
2021/04/16 06:27:17;;;;;;;0.80;0.80;;;;;;;4.12;73.83;101590.56;4986696;28;20189;-82
2021/04/16 06:29:42;;;;;;;0.83;0.80;;;;;;;4.17;74.31;101588.78;4991679;28;20251;-78
2021/04/16 06:32:09;;;;;;;0.90;0.90;;;;;;;4.25;73.79;101589.47;4991576;28;20648;-80
2021/04/16 06:34:34;;;;;;;1.23;1.13;;;;;;;4.30;73.81;101581.44;4991513;28;20181;-85
2021/04/16 06:37:00;;;;;;;1.07;0.97;;;;;;;4.24;72.39;101591.34;4991610;28;20228;-83
2021/04/16 06:39:25;;;;;;;5.10;1.30;;;;;;;4.31;73.04;101593.91;4991093;28;20541;-83
2021/04/16 06:41:51;;;;;;;1.40;1.23;;;;;;;4.36;72.80;101585.91;4991199;28;20669;-83
2021/04/16 06:44:30;;;;;;;1.47;1.37;;;;;;;4.44;71.78;101585.50;4991254;28;20697;-80
2021/04/16 06:47:05;;;;;;;0.90;0.90;;;;;;;4.50;72.19;101579.13;4991342;28;20183;-80
2021/04/16 06:49:31;;;;;;;1.53;1.10;;;;;;;4.54;71.98;101585.69;4991342;28;20172;-83
2021/04/16 06:52:21;;;;;;;0.87;0.87;;;;;;;4.62;71.35;101576.34;4990872;28;20181;-83
2021/04/16 06:54:53;;;;;;;0.80;0.80;;;;;;;4.64;70.94;101580.47;4990859;28;20207;-82
2021/04/16 06:57:32;;;;;;;1.20;1.00;;;;;;;4.60;71.03;101583.88;4991317;28;20268;-85
2021/04/16 07:00:28;;;;;;;1.40;1.30;;;;;;;4.70;70.86;101581.38;4972218;28;20575;-83
2021/04/16 07:03:27;;;;;;;0.50;0.50;;;;;;;4.82;70.42;101581.31;4991213;28;20177;-85
2021/04/16 07:05:58;;;;;;;1.27;1.13;;;;;;;4.86;70.30;101588.69;4989683;28;20228;-84
2021/04/16 07:08:24;;;;;;;0.70;0.70;;;;;;;4.89;69.96;101587.38;4991377;28;20252;-82
2021/04/16 07:10:52;;;;;;;1.13;1.00;;;;;;;4.94;69.74;101584.78;4991021;28;20632;-83
2021/04/16 07:13:27;;;;;;;1.93;1.73;;;;;;;4.93;70.20;101594.78;4991274;28;20641;-84
2021/04/16 07:15:52;;;;;;;1.80;1.70;;;;;;;4.94;68.15;101599.13;4991667;28;20181;-84
2021/04/16 07:18:24;;;;;;;1.77;1.20;;;;;;;4.99;68.62;101601.09;4991012;28;20180;-81
2021/04/16 07:20:49;;;;;;;0.90;0.90;;;;;;;5.06;67.72;101591.75;4991027;28;20205;-82
2021/04/16 07:23:16;;;;;;;0.90;0.90;;;;;;;5.01;66.16;101590.81;4990458;28;20276;-84
2021/04/16 07:25:57;;;;;;;1.20;1.10;;;;;;;5.20;66.95;101597.63;4990836;28;20310;-80
2021/04/16 07:28:28;;;;;;;6.23;1.57;;;;;;;5.20;65.45;101596.81;4989448;28;20189;-79
2021/04/16 07:30:54;;;;;;;1.30;1.20;;;;;;;5.22;64.65;101595.53;4987989;28;20592;-77
2021/04/16 07:33:38;;;;;;;1.47;1.27;;;;;;;5.20;65.69;101599.50;4989234;28;20463;-81
2021/04/16 07:36:33;;;;;;;1.30;1.13;;;;;;;5.32;65.27;101597.53;4983522;28;20272;-78
2021/04/16 07:39:14;;;;;;;1.40;1.20;;;;;;;5.32;65.72;101606.50;4989681;28;20193;-76
2021/04/16 07:41:43;;;;;;;1.07;1.00;;;;;;;5.20;65.29;101594.91;4990926;28;20193;-80
2021/04/16 07:44:16;;;;;;;1.07;1.03;;;;;;;5.28;65.03;101590.97;4990928;28;20279;-83
2021/04/16 07:46:42;;;;;;;1.63;1.37;;;;;;;5.25;65.40;101592.31;4992723;28;20450;-82
2021/04/16 07:49:10;;;;;;;2.33;1.73;;;;;;;5.36;65.72;101593.28;4995082;28;20256;-82
2021/04/16 07:51:35;;;;;;;1.33;1.03;;;;;;;5.34;65.11;101593.50;4995063;28;20185;-81
2021/04/16 07:54:11;;;;;;;1.27;1.17;;;;;;;5.47;65.64;101586.94;4994819;28;20649;-81
2021/04/16 07:56:37;;;;;;;1.50;1.40;;;;;;;5.42;64.36;101595.00;4994676;28;20177;-80
2021/04/16 07:59:13;;;;;;;0.93;0.83;;;;;;;5.59;63.46;101595.78;4994639;28;20181;-81
2021/04/16 08:01:41;;;;;;;3.47;2.20;;;;;;;5.75;62.90;101587.84;5010218;28;20538;-77
2021/04/16 08:04:28;;;;;;;3.50;1.10;;;;;;;5.85;61.15;101593.41;4994894;28;20295;-81
2021/04/16 08:06:54;;;;;;;0.57;0.57;;;;;;;5.94;60.34;101584.63;4977131;28;20181;-80
2021/04/16 08:09:25;;;;;;;0.83;0.83;;;;;;;6.09;60.64;101588.59;4994560;28;20183;-82
2021/04/16 08:11:52;;;;;;;0.57;0.57;;;;;;;6.04;61.12;101586.63;4994566;28;20181;-82
2021/04/16 08:14:30;;;;;;;0.50;0.50;;;;;;;6.25;60.07;101580.38;4994569;28;20596;-80
2021/04/16 08:16:58;;;;;;;1.70;0.90;;;;;;;6.49;59.52;101583.59;4994627;28;20239;-82
2021/04/16 08:19:45;;;;;;;0.37;0.37;;;;;;;6.57;58.19;101576.91;4994181;28;20173;-81
2021/04/16 08:22:09;;;;;;;2.60;0.70;;;;;;;6.34;55.88;101586.16;4993828;28;20212;-82
2021/04/16 08:24:34;;;;;;;0.73;0.73;;;;;;;6.28;57.60;101580.94;4994460;28;20209;-80
2021/04/16 08:27:15;;;;;;;0.33;0.33;;;;;;;6.30;58.08;101585.03;4994194;28;20639;-81
2021/04/16 08:29:46;;;;;;;0.63;0.60;;;;;;;6.76;57.25;101585.50;4994231;28;20173;-81
2021/04/16 08:32:30;;;;;;;1.13;0.80;;;;;;;6.73;57.35;101580.59;4994148;28;20185;-80
2021/04/16 08:35:02;;;;;;;0.83;0.83;;;;;;;6.83;56.94;101583.41;4994199;28;20205;-80
2021/04/16 08:37:38;;;;;;;0.67;0.67;;;;;;;6.71;56.62;101580.84;4994136;28;20185;-81
2021/04/16 08:40:09;;;;;;;0.57;0.50;;;;;;;6.91;56.29;101588.34;4993679;28;20604;-81
2021/04/16 08:42:35;;;;;;;0.63;0.53;;;;;;;6.90;56.80;101581.28;4993886;28;20188;-79
2021/04/16 08:45:04;;;;;;;1.03;0.77;;;;;;;6.97;56.82;101579.19;4993874;28;20595;-80
2021/04/16 08:47:35;;;;;;;0.67;0.67;;;;;;;7.09;56.68;101568.94;4993284;28;20220;-78
2021/04/16 08:50:04;;;;;;;0.83;0.83;;;;;;;7.15;55.23;101570.63;4992378;28;20173;-77
2021/04/16 08:52:42;;;;;;;1.43;0.73;;;;;;;7.38;56.11;101571.31;4991926;28;20177;-79
2021/04/16 08:55:29;;;;;;;0.73;0.73;;;;;;;7.40;52.51;101561.81;4992575;28;20480;-78
2021/04/16 08:58:16;;;;;;;0.30;0.30;;;;;;;7.82;52.06;101566.41;4991017;28;20264;-80
2021/04/16 09:00:55;;;;;;;0.30;0.30;;;;;;;7.78;49.43;101559.00;4991967;28;20188;-79
2021/04/16 09:03:26;;;;;;;1.23;0.33;;;;;;;7.67;49.10;101569.88;4992641;28;20186;-80
2021/04/16 09:05:56;;;;;;;0.30;0.20;;;;;;;7.60;49.18;101568.44;4993455;28;20466;-81
2021/04/16 09:08:27;;;;;;;0.50;0.50;;;;;;;7.50;49.74;101566.47;4992036;28;20193;-80
2021/04/16 09:10:55;;;;;;;0.50;0.40;;;;;;;7.42;49.34;101556.13;4992077;28;20208;-77
2021/04/16 09:13:33;;;;;;;0.30;0.30;;;;;;;7.68;49.35;101571.50;4990850;28;20181;-80
2021/04/16 09:16:22;;;;;;;0.63;0.63;;;;;;;7.61;50.24;101564.66;4991601;28;20195;-80
2021/04/16 09:18:53;;;;;;;0.40;0.40;;;;;;;7.93;49.97;101570.78;4991953;28;20181;-78
2021/04/16 09:21:28;;;;;;;0.37;0.37;;;;;;;7.86;49.83;101572.94;4992847;28;20280;-77
2021/04/16 09:23:57;;;;;;;0.57;0.57;;;;;;;7.81;49.44;101564.75;4992442;28;20205;-78
2021/04/16 09:26:46;;;;;;;0.40;0.40;;;;;;;7.49;50.03;101566.75;4991485;28;20189;-79
2021/04/16 09:29:26;;;;;;;0.10;0.10;;;;;;;7.76;50.15;101565.53;4993115;28;20188;-79
2021/04/16 09:32:01;;;;;;;0.30;0.30;;;;;;;7.75;50.37;101566.63;4992195;28;20665;-79
2021/04/16 09:34:48;;;;;;;0.97;0.80;;;;;;;7.69;50.36;101572.31;4991100;28;20177;-82
2021/04/16 09:37:26;;;;;;;0.40;0.40;;;;;;;7.83;50.33;101570.75;4992756;28;20260;-80
2021/04/16 09:40:26;;;;;;;0.47;0.47;;;;;;;7.64;50.27;101567.66;4992769;28;20177;-80
2021/04/16 09:43:21;;;;;;;0.50;0.40;;;;;;;7.80;50.24;101568.53;4979384;28;20285;-79
2021/04/16 09:45:51;;;;;;;0.50;0.50;;;;;;;7.95;50.61;101570.50;4992486;28;20260;-78
2021/04/16 09:48:16;;;;;;;0.47;0.40;;;;;;;8.10;49.56;101561.59;4992416;28;20182;-77
2021/04/16 09:50:47;;;;;;;0.63;0.60;;;;;;;7.78;49.81;101570.72;4991116;28;20736;-78
2021/04/16 09:53:29;;;;;;;0.50;0.50;;;;;;;7.89;49.87;101561.53;4992460;28;20189;-79
2021/04/16 09:55:58;;;;;;;0.50;0.50;;;;;;;8.33;50.04;101567.38;4992735;28;20225;-80
2021/04/16 10:00:57;;;;;;;0.57;0.50;;;;;;;7.90;49.79;101551.44;4992596;28;20189;-77
2021/04/16 10:03:31;;;;;;;0.80;0.80;;;;;;;8.11;50.02;101557.81;4992118;28;20177;-78
2021/04/16 10:05:58;;;;;;;0.50;0.50;;;;;;;7.91;51.02;101555.81;4991313;28;20184;-79
2021/04/16 10:08:25;;;;;;;0.50;0.50;;;;;;;8.28;50.40;101555.66;4991970;28;20189;-77
2021/04/16 10:10:52;;;;;;;0.70;0.60;;;;;;;8.16;49.98;101553.19;4992123;28;20169;-78
2021/04/16 10:13:30;;;;;;;0.77;0.77;;;;;;;8.38;49.88;101557.59;4992211;28;20173;-78
2021/04/16 10:15:57;;;;;;;0.43;0.43;;;;;;;8.26;49.24;101553.22;4992328;28;20177;-85
2021/04/16 10:18:36;;;;;;;0.70;0.70;;;;;;;8.51;49.75;101548.91;4992283;28;20629;-83
2021/04/16 10:21:14;;;;;;;1.00;0.77;;;;;;;8.49;48.65;101551.09;4992576;28;20185;-83
2021/04/16 10:23:42;;;;;;;1.00;1.00;;;;;;;8.44;49.31;101551.91;4992011;28;20203;-85
2021/04/16 12:39:03;;;;;;;0.60;0.60;;;;;;;10.95;38.13;101447.72;4993879;28;20204;-74
2021/04/16 12:41:43;;;;;;;0.60;0.60;;;;;;;10.71;37.50;101442.25;4993509;28;20187;-74
2021/04/16 12:44:25;;;;;;;0.47;0.40;;;;;;;11.13;37.78;101442.63;4993237;28;20220;-73
2021/04/16 12:46:52;;;;;;;0.90;0.53;;;;;;;10.74;37.16;101446.31;4993560;28;20181;-73
2021/04/16 12:49:17;;;;;;;0.47;0.43;;;;;;;10.99;37.73;101437.88;4993408;28;20182;-72
2021/04/16 12:51:42;;;;;;;1.00;0.90;;;;;;;10.62;36.52;101446.69;5008381;28;20287;-73
2021/04/16 12:54:07;;;;;;;1.13;0.60;;;;;;;10.80;36.85;101449.81;4993164;28;20652;-74
2021/04/16 12:56:38;;;;;;;0.40;0.40;;;;;;;10.78;36.71;101436.44;4992297;28;20239;-78
2021/04/16 12:59:15;;;;;;;0.40;0.40;;;;;;;10.87;35.87;101448.38;4993382;28;20247;-75
2021/04/16 13:01:43;;;;;;;0.50;0.50;;;;;;;10.66;36.22;101450.47;4993752;28;20280;-73
2021/04/16 13:04:09;;;;;;;0.50;0.47;;;;;;;10.85;35.01;101445.13;4993638;28;20220;-73
2021/04/16 13:06:37;;;;;;;0.40;0.40;;;;;;;10.58;35.15;101444.81;4993780;28;20204;-73
2021/04/16 13:09:05;;;;;;;0.67;0.67;;;;;;;10.78;35.96;101441.91;4993826;28;20304;-73
2021/04/16 13:11:30;;;;;;;0.50;0.50;;;;;;;10.88;36.44;101444.53;4992414;28;20498;-73
2021/04/16 13:13:56;;;;;;;0.73;0.73;;;;;;;11.00;38.34;101442.22;4993201;28;20189;-72
2021/04/16 13:16:23;;;;;;;0.70;0.70;;;;;;;11.24;37.20;101436.75;4993252;28;20196;-72
2021/04/16 13:18:51;;;;;;;0.50;0.50;;;;;;;11.06;37.91;101437.50;4993357;28;20174;-75
2021/04/16 13:21:25;;;;;;;0.40;0.40;;;;;;;11.25;37.23;101443.84;4993035;28;20876;-73
2021/04/16 13:23:50;;;;;;;0.70;0.70;;;;;;;10.99;36.03;101437.03;4992632;28;20212;-74
2021/04/16 13:26:16;;;;;;;0.63;0.63;;;;;;;11.00;35.39;101439.50;4993462;28;20177;-72
2021/04/16 13:28:41;;;;;;;0.60;0.60;;;;;;;10.98;35.65;101425.28;4993670;28;20207;-77
2021/04/16 13:31:08;;;;;;;2.10;0.57;;;;;;;11.09;34.38;101431.44;4993509;28;20539;-74
2021/04/16 13:33:39;;;;;;;0.40;0.40;;;;;;;11.09;34.01;101428.72;4994790;28;20188;-72
2021/04/16 13:36:06;;;;;;;1.47;0.80;;;;;;;11.24;35.05;101419.53;4996688;28;20195;-73
2021/04/16 13:38:32;;;;;;;0.80;0.60;;;;;;;11.19;36.15;101417.66;4993636;28;20189;-72
2021/04/16 13:41:00;;;;;;;0.90;0.90;;;;;;;11.12;36.54;101413.66;5007991;28;20201;-73
2021/04/16 13:43:28;;;;;;;0.50;0.50;;;;;;;11.40;36.35;101415.50;4992910;28;20420;-72
2021/04/16 13:45:54;;;;;;;0.30;0.30;;;;;;;10.94;36.37;101416.03;4992651;28;20208;-74
2021/04/16 13:48:19;;;;;;;1.77;0.70;;;;;;;11.26;36.50;101409.91;4993205;28;20180;-72
2021/04/16 13:50:46;;;;;;;0.50;0.50;;;;;;;11.48;37.06;101414.84;4992716;28;20181;-73
2021/04/16 13:53:12;;;;;;;1.00;0.57;;;;;;;11.72;35.82;101406.59;4992590;28;20637;-72
2021/04/16 13:55:38;;;;;;;0.87;0.57;;;;;;;11.20;35.19;101404.81;4992813;28;20185;-73